Time;durP1;ratioP1;P1;durP2;ratioP2;P2;SDS_P1;SDS_P2;PMS_P1;PMS_P2;Temp;Humidity;BMP_temperature;BMP_pressure;BME280_temperature;BME280_humidity;BME280_pressure;Samples;Min_cycle;Max_cycle;Signal;HPM_P1;HPM_P2
2020/12/11 00:00:00;;;;;;;29.88;19.90;;;;;;;5.40;100.00;100412.22;5034003;28;20094;-67
2020/12/11 00:02:45;;;;;;;29.10;19.65;;;;;;;5.31;100.00;100404.44;5033579;28;20100;-66
2020/12/11 00:05:31;;;;;;;27.40;18.52;;;;;;;5.26;100.00;100397.53;5019681;28;20457;-67
2020/12/11 00:08:16;;;;;;;26.45;17.67;;;;;;;5.34;100.00;100396.66;5033758;28;20091;-67
2020/12/11 00:11:01;;;;;;;29.73;20.08;;;;;;;5.43;100.00;100404.41;5033035;28;20129;-67
2020/12/11 00:13:47;;;;;;;27.25;18.98;;;;;;;5.19;100.00;100403.59;5033683;28;20041;-67
2020/12/11 00:16:32;;;;;;;29.88;19.85;;;;;;;4.76;100.00;100407.94;5033222;28;20034;-67
2020/12/11 00:19:18;;;;;;;35.35;22.00;;;;;;;5.10;100.00;100416.56;5033537;28;20044;-67
2020/12/11 00:22:03;;;;;;;29.88;18.60;;;;;;;4.59;100.00;100404.44;5033093;28;20037;-67
2020/12/11 00:24:49;;;;;;;28.23;19.50;;;;;;;4.65;100.00;100401.00;5033401;28;20037;-66
2020/12/11 00:27:35;;;;;;;34.25;21.20;;;;;;;4.73;100.00;100404.47;5033103;28;20125;-67
2020/12/11 00:30:20;;;;;;;31.80;19.48;;;;;;;4.92;100.00;100404.50;5019316;28;20029;-68
2020/12/11 00:33:06;;;;;;;34.55;21.08;;;;;;;4.66;100.00;100402.72;5032991;28;20033;-66
2020/12/11 00:35:51;;;;;;;32.08;20.52;;;;;;;4.59;100.00;100408.78;5032992;28;20043;-66
2020/12/11 00:38:37;;;;;;;31.25;20.10;;;;;;;4.99;100.00;100413.97;5033209;28;20047;-65
2020/12/11 00:41:22;;;;;;;33.50;20.83;;;;;;;5.16;100.00;100416.59;5032470;28;20037;-66
2020/12/11 00:44:08;;;;;;;35.83;22.45;;;;;;;4.50;100.00;100420.00;5046991;28;20449;-67
2020/12/11 00:46:55;;;;;;;30.80;20.83;;;;;;;4.94;100.00;100417.44;5032899;28;20045;-67
2020/12/11 00:49:40;;;;;;;30.58;19.38;;;;;;;4.72;100.00;100420.91;5032876;28;20036;-67
2020/12/11 00:52:26;;;;;;;30.75;20.23;;;;;;;4.53;100.00;100419.13;5032238;28;20022;-67
2020/12/11 00:55:11;;;;;;;30.58;19.77;;;;;;;5.16;100.00;100421.78;5032590;28;20377;-67
2020/12/11 00:57:57;;;;;;;33.10;22.08;;;;;;;4.77;100.00;100420.03;5015554;28;20036;-67
2020/12/11 01:00:42;;;;;;;37.83;23.92;;;;;;;5.09;100.00;100418.31;4999239;28;20405;-67
2020/12/11 01:03:27;;;;;;;32.42;21.08;;;;;;;4.99;100.00;100416.56;5015103;28;20509;-66
2020/12/11 01:06:13;;;;;;;32.42;20.75;;;;;;;5.04;100.00;100414.00;5017711;28;20448;-66
2020/12/11 01:08:58;;;;;;;30.25;20.75;;;;;;;5.04;100.00;100430.44;5012991;28;20040;-67
2020/12/11 01:11:44;;;;;;;31.38;20.08;;;;;;;4.81;100.00;100426.09;5013575;28;20175;-65
2020/12/11 01:14:29;;;;;;;29.38;19.13;;;;;;;4.66;100.00;100429.53;5013269;28;20362;-67
2020/12/11 01:17:14;;;;;;;33.22;22.17;;;;;;;4.75;100.00;100431.28;5012559;28;20392;-66
2020/12/11 01:20:00;;;;;;;33.80;21.35;;;;;;;4.65;100.00;100425.22;5012625;28;20481;-67
2020/12/11 01:22:45;;;;;;;31.88;21.05;;;;;;;4.88;100.00;100425.25;5012333;28;20045;-66
2020/12/11 01:25:31;;;;;;;35.70;22.75;;;;;;;4.88;100.00;100418.31;4998711;28;20033;-66
2020/12/11 01:28:16;;;;;;;29.83;19.77;;;;;;;4.49;100.00;100419.97;5012678;28;20038;-67
2020/12/11 01:31:02;;;;;;;31.70;20.95;;;;;;;4.45;100.00;100413.94;5011956;28;20096;-67
2020/12/11 01:33:49;;;;;;;31.98;21.10;;;;;;;4.60;100.00;100402.72;4998821;28;20048;-66
2020/12/11 01:36:34;;;;;;;33.38;21.65;;;;;;;4.04;100.00;100404.31;4998590;28;20033;-66
2020/12/11 01:39:20;;;;;;;29.98;19.17;;;;;;;3.99;100.00;100406.88;5012714;28;20052;-66
2020/12/11 01:42:12;;;;;;;33.47;20.63;;;;;;;4.40;100.00;100396.63;5011837;28;20119;-67
2020/12/11 01:44:57;;;;;;;34.67;21.98;;;;;;;4.56;100.00;100390.59;5015036;28;20099;-67
2020/12/11 01:47:44;;;;;;;29.15;19.45;;;;;;;4.49;100.00;100386.25;5016235;28;20464;-67
2020/12/11 01:50:29;;;;;;;36.53;21.20;;;;;;;4.42;100.00;100395.78;5016241;28;20041;-67
2020/12/11 01:53:15;;;;;;;32.72;19.63;;;;;;;3.91;100.00;100392.16;5016293;28;20029;-67
2020/12/11 01:56:03;;;;;;;33.67;20.38;;;;;;;3.78;100.00;100399.00;5017109;28;20120;-66
2020/12/11 01:58:52;;;;;;;36.95;21.35;;;;;;;4.23;100.00;100388.78;5035932;28;20098;-67
2020/12/11 02:01:38;;;;;;;32.75;21.05;;;;;;;4.37;100.00;100394.03;5035674;28;20041;-67
2020/12/11 02:04:23;;;;;;;31.77;20.23;;;;;;;4.51;100.00;100400.97;5036143;28;20041;-67
2020/12/11 02:07:09;;;;;;;28.98;18.15;;;;;;;4.57;100.00;100389.75;5035811;28;20365;-67
2020/12/11 02:09:54;;;;;;;38.60;21.95;;;;;;;4.58;100.00;100392.34;5035759;28;20033;-66
2020/12/11 02:12:39;;;;;;;29.95;18.00;;;;;;;4.31;100.00;100392.28;5035404;28;20445;-66
2020/12/11 02:15:25;;;;;;;30.55;18.75;;;;;;;4.54;100.00;100395.78;5035874;28;20094;-67
2020/12/11 02:18:10;;;;;;;27.98;18.30;;;;;;;4.68;100.00;100381.13;5035764;28;20449;-66
2020/12/11 02:20:56;;;;;;;25.00;17.23;;;;;;;4.69;100.00;100363.81;5021631;28;20029;-66
2020/12/11 02:23:45;;;;;;;23.23;15.75;;;;;;;4.72;100.00;100354.31;5035733;28;20045;-66
2020/12/11 02:26:30;;;;;;;23.45;15.90;;;;;;;4.52;100.00;100368.13;5035190;28;20021;-66
2020/12/11 02:29:16;;;;;;;29.60;18.73;;;;;;;4.66;100.00;100359.47;5035506;28;20037;-66
2020/12/11 02:32:01;;;;;;;26.98;17.52;;;;;;;4.45;100.00;100359.47;5034590;28;20422;-67
2020/12/11 02:34:47;;;;;;;29.15;18.38;;;;;;;4.76;100.00;100366.41;5035390;28;20065;-67
2020/12/11 02:37:32;;;;;;;26.48;16.95;;;;;;;5.00;100.00;100376.81;5035092;28;20365;-66
2020/12/11 02:40:18;;;;;;;28.05;16.40;;;;;;;4.98;100.00;100383.72;5034955;28;20456;-66
2020/12/11 02:43:03;;;;;;;24.55;15.80;;;;;;;4.56;100.00;100375.91;5034729;28;20488;-66
2020/12/11 02:45:51;;;;;;;28.92;18.10;;;;;;;5.30;100.00;100375.88;5035014;28;20060;-66
2020/12/11 02:48:36;;;;;;;26.20;17.15;;;;;;;4.84;100.00;100375.06;5049050;28;20428;-66
2020/12/11 02:51:23;;;;;;;27.85;17.48;;;;;;;4.95;100.00;100365.53;5034751;28;20035;-67
2020/12/11 02:54:08;;;;;;;26.90;18.15;;;;;;;4.68;100.00;100369.88;5034980;28;20147;-66
2020/12/11 02:56:54;;;;;;;34.67;22.38;;;;;;;4.84;100.00;100364.69;5025294;28;20406;-67
2020/12/11 02:59:39;;;;;;;27.13;17.90;;;;;;;5.26;100.00;100376.75;5015229;28;20030;-66
2020/12/11 03:02:25;;;;;;;31.20;19.67;;;;;;;4.96;100.00;100372.47;5014275;28;20457;-67
2020/12/11 03:05:10;;;;;;;32.47;20.05;;;;;;;5.12;100.00;100375.91;5015036;28;20446;-66
2020/12/11 03:07:55;;;;;;;29.55;19.10;;;;;;;4.59;100.00;100375.06;5014537;28;20454;-66
2020/12/11 03:10:41;;;;;;;27.77;18.35;;;;;;;5.06;100.00;100381.09;5014599;28;20503;-67
2020/12/11 03:13:26;;;;;;;28.77;18.15;;;;;;;5.08;100.00;100372.47;5014892;28;20366;-67
2020/12/11 03:16:12;;;;;;;31.55;20.63;;;;;;;4.75;100.00;100384.59;5014637;28;20045;-67
2020/12/11 03:18:57;;;;;;;35.50;22.13;;;;;;;4.63;100.00;100380.22;5001212;28;20036;-67
2020/12/11 03:21:43;;;;;;;30.27;19.45;;;;;;;5.13;100.00;100394.09;5014666;28;20469;-67
2020/12/11 03:24:28;;;;;;;31.10;20.65;;;;;;;5.10;100.00;100407.06;5001031;28;20812;-67
2020/12/11 03:27:17;;;;;;;38.60;23.77;;;;;;;4.39;100.00;100413.91;5014260;28;20502;-67
2020/12/11 03:30:03;;;;;;;37.40;22.73;;;;;;;4.13;100.00;100432.84;5014527;28;20183;-66
2020/12/11 03:32:49;;;;;;;44.78;27.58;;;;;;;4.90;100.00;100429.56;5000719;28;20088;-66
2020/12/11 03:35:36;;;;;;;46.58;28.88;;;;;;;5.17;100.00;100426.09;5014631;28;20076;-66
2020/12/11 03:38:22;;;;;;;50.05;30.23;;;;;;;4.47;100.00;100434.69;5014367;28;20052;-66
2020/12/11 03:41:07;;;;;;;50.38;28.88;;;;;;;4.59;100.00;100424.34;5013931;28;20034;-67
2020/12/11 03:43:52;;;;;;;50.53;27.33;;;;;;;4.29;100.00;100419.94;5014237;28;20045;-66
2020/12/11 03:46:38;;;;;;;56.00;29.50;;;;;;;4.45;100.00;100415.66;5014039;28;20103;-66
2020/12/11 03:49:23;;;;;;;63.85;32.03;;;;;;;3.99;100.00;100426.75;5014056;28;20045;-67
2020/12/11 03:52:08;;;;;;;59.53;30.83;;;;;;;4.38;100.00;100430.34;5013759;28;20057;-67
2020/12/11 03:54:54;;;;;;;60.53;31.50;;;;;;;4.46;100.00;100431.22;5013901;28;20042;-66
2020/12/11 03:57:39;;;;;;;62.70;31.70;;;;;;;4.47;100.00;100430.34;5028581;28;20119;-66
2020/12/11 04:00:25;;;;;;;57.13;31.35;;;;;;;4.94;100.00;100438.19;5033396;28;20021;-67
2020/12/11 04:03:10;;;;;;;50.10;29.10;;;;;;;4.96;100.00;100434.78;5033753;28;20045;-67
2020/12/11 04:05:56;;;;;;;47.80;26.83;;;;;;;4.75;100.00;100434.72;5034973;28;20103;-65
2020/12/11 04:08:42;;;;;;;43.65;25.35;;;;;;;5.03;100.00;100441.69;5034921;28;20045;-66
2020/12/11 04:11:28;;;;;;;39.88;23.60;;;;;;;4.90;100.00;100439.94;5047042;28;20202;-67
2020/12/11 04:14:13;;;;;;;38.05;23.63;;;;;;;5.50;100.00;100446.00;5034236;28;20033;-66
2020/12/11 04:16:59;;;;;;;36.35;22.40;;;;;;;4.78;100.00;100445.13;5034269;28;20045;-67
2020/12/11 04:19:44;;;;;;;34.72;21.20;;;;;;;4.78;100.00;100436.47;5033668;28;20041;-67
2020/12/11 04:22:30;;;;;;;36.08;21.75;;;;;;;4.93;100.00;100441.66;5033171;28;20037;-67
2020/12/11 04:25:15;;;;;;;34.70;21.25;;;;;;;5.18;100.00;100443.41;5033018;28;20416;-67
2020/12/11 04:28:00;;;;;;;32.58;20.52;;;;;;;5.46;100.00;100442.50;5033128;28;20034;-67
2020/12/11 04:30:46;;;;;;;31.25;20.77;;;;;;;5.53;100.00;100440.75;5032486;28;20053;-67
2020/12/11 04:33:31;;;;;;;29.67;19.33;;;;;;;5.57;100.00;100443.38;5033089;28;20029;-68
2020/12/11 04:36:17;;;;;;;34.30;21.65;;;;;;;5.35;100.00;100444.28;5032902;28;20029;-66
2020/12/11 04:39:03;;;;;;;34.72;22.50;;;;;;;5.21;100.00;100439.09;5046492;28;20417;-66
2020/12/11 04:41:51;;;;;;;33.53;20.73;;;;;;;5.47;100.00;100446.88;5033207;28;20029;-67
2020/12/11 04:44:37;;;;;;;34.47;22.17;;;;;;;5.26;100.00;100446.84;5032807;28;20331;-67
2020/12/11 04:47:23;;;;;;;33.25;22.27;;;;;;;5.57;100.00;100442.50;5032734;28;20033;-67
2020/12/11 04:50:11;;;;;;;33.28;21.17;;;;;;;5.59;100.00;100443.38;5032922;28;20106;-67
2020/12/11 04:52:58;;;;;;;31.27;19.42;;;;;;;5.40;100.00;100433.00;5032402;28;20588;-66
2020/12/11 04:55:44;;;;;;;32.75;20.55;;;;;;;5.72;100.00;100427.75;5032316;28;20044;-67
2020/12/11 04:58:31;;;;;;;29.52;19.55;;;;;;;5.64;100.00;100428.63;5012991;28;20041;-66
2020/12/11 05:01:37;;;;;;;31.77;20.23;;;;;;;4.80;100.00;100435.63;5012539;28;20038;-66
2020/12/11 05:04:23;;;;;;;29.27;19.17;;;;;;;5.16;100.00;100442.56;5026752;28;20473;-67
2020/12/11 05:07:08;;;;;;;29.85;19.50;;;;;;;5.09;100.00;100440.81;5012641;28;20535;-67
2020/12/11 05:09:57;;;;;;;27.73;18.90;;;;;;;4.54;100.00;100439.88;5012651;28;20034;-67
2020/12/11 05:12:43;;;;;;;26.10;18.13;;;;;;;5.20;100.00;100441.69;5026006;28;20050;-67
2020/12/11 05:15:29;;;;;;;27.45;18.73;;;;;;;5.07;100.00;100434.78;5012592;28;20070;-67
2020/12/11 05:18:19;;;;;;;28.45;19.05;;;;;;;5.03;100.00;100440.81;5012317;28;20033;-67
2020/12/11 05:21:22;;;;;;;33.25;21.98;;;;;;;5.23;100.00;100432.16;5026152;28;20042;-66
2020/12/11 05:24:07;;;;;;;30.05;21.50;;;;;;;4.60;100.00;100423.47;5012479;28;20042;-66
2020/12/11 05:26:53;;;;;;;31.17;21.35;;;;;;;4.77;100.00;100430.41;5012624;28;20033;-68
2020/12/11 05:29:38;;;;;;;29.95;20.80;;;;;;;5.07;100.00;100432.19;5012587;28;20109;-66
2020/12/11 05:32:56;;;;;;;32.22;21.42;;;;;;;5.08;100.00;100437.38;4998025;28;20064;-67
2020/12/11 05:35:42;;;;;;;32.50;22.55;;;;;;;5.23;100.00;100432.16;5012307;28;20099;-69
2020/12/11 05:38:27;;;;;;;31.35;21.73;;;;;;;5.42;100.00;100429.56;5012291;28;20469;-67
2020/12/11 05:41:30;;;;;;;32.50;22.05;;;;;;;4.98;100.00;100433.03;5025582;28;20338;-67
2020/12/11 05:44:42;;;;;;;33.42;22.40;;;;;;;5.19;100.00;100427.81;5012507;28;20057;-67
2020/12/11 05:47:27;;;;;;;32.15;21.70;;;;;;;5.38;100.00;100429.53;5012449;28;20041;-66
2020/12/11 05:50:19;;;;;;;31.50;20.52;;;;;;;5.43;100.00;100434.75;5026275;28;20042;-67
2020/12/11 05:53:05;;;;;;;31.85;21.15;;;;;;;5.10;100.00;100433.03;5026517;28;20038;-67
2020/12/11 05:55:50;;;;;;;30.90;20.90;;;;;;;5.32;100.00;100436.47;5025719;28;20121;-67
2020/12/11 05:58:36;;;;;;;32.33;21.33;;;;;;;5.52;100.00;100439.03;5012415;28;20501;-66
2020/12/11 06:01:22;;;;;;;32.90;20.73;;;;;;;5.79;100.00;100454.59;4998372;28;20325;-67
2020/12/11 06:04:10;;;;;;;37.75;24.58;;;;;;;5.56;100.00;100448.56;5026187;28;20077;-67
2020/12/11 06:06:57;;;;;;;36.70;23.25;;;;;;;5.69;100.00;100447.66;5012322;28;20099;-67
2020/12/11 06:09:44;;;;;;;36.70;23.63;;;;;;;5.43;100.00;100445.97;5012163;28;20037;-67
2020/12/11 06:12:30;;;;;;;39.75;24.08;;;;;;;4.94;100.00;100446.88;5011236;28;20037;-68
2020/12/11 06:15:22;;;;;;;42.45;25.35;;;;;;;4.76;100.00;100444.28;5025377;28;20492;-67
2020/12/11 06:18:23;;;;;;;43.97;25.50;;;;;;;5.02;100.00;100447.75;5025344;28;20508;-66
2020/12/11 06:21:10;;;;;;;34.30;22.50;;;;;;;5.31;100.00;100456.38;5011491;28;20038;-66
2020/12/11 06:23:55;;;;;;;35.58;23.17;;;;;;;5.50;100.00;100461.59;5025620;28;20346;-66
2020/12/11 06:26:55;;;;;;;33.88;22.40;;;;;;;4.60;100.00;100459.78;5025448;28;20065;-67
2020/12/11 06:29:41;;;;;;;38.63;25.88;;;;;;;5.18;100.00;100459.84;5011482;28;20053;-66
2020/12/11 06:32:33;;;;;;;35.60;24.60;;;;;;;5.75;100.00;100456.34;5013875;28;20054;-67
2020/12/11 06:35:19;;;;;;;41.40;25.15;;;;;;;6.08;100.00;100466.66;5015607;28;20357;-67
2020/12/11 06:38:04;;;;;;;43.63;28.88;;;;;;;6.00;100.00;100464.94;5015423;28;20124;-66
2020/12/11 06:40:50;;;;;;;42.95;28.52;;;;;;;6.21;100.00;100470.06;5015116;28;20395;-66
2020/12/11 06:43:45;;;;;;;47.17;30.35;;;;;;;6.17;100.00;100468.34;5015466;28;20065;-67
2020/12/11 06:46:31;;;;;;;44.65;28.02;;;;;;;5.80;100.00;100464.09;5028451;28;20478;-67
2020/12/11 06:49:19;;;;;;;45.38;29.15;;;;;;;6.27;100.00;100455.31;5014628;28;20111;-67
2020/12/11 06:52:05;;;;;;;47.75;29.20;;;;;;;5.69;100.00;100465.84;5014314;28;20113;-66
2020/12/11 06:54:51;;;;;;;46.05;28.80;;;;;;;6.26;100.00;100463.97;5001038;28;20065;-67
2020/12/11 06:57:39;;;;;;;44.83;27.40;;;;;;;6.46;100.00;100469.97;5034617;28;20041;-66
2020/12/11 07:00:30;;;;;;;47.55;28.52;;;;;;;6.22;100.00;100469.22;5034146;28;20492;-67
2020/12/11 07:03:16;;;;;;;46.38;28.23;;;;;;;6.34;100.00;100467.41;5034444;28;20398;-67
2020/12/11 07:06:04;;;;;;;43.65;28.63;;;;;;;6.49;100.00;100467.34;5034215;28;20029;-67
2020/12/11 07:08:50;;;;;;;53.28;33.50;;;;;;;5.57;100.00;100478.88;5034811;28;20037;-66
2020/12/11 07:11:35;;;;;;;50.88;32.40;;;;;;;5.77;100.00;100482.31;5034652;28;20029;-66
2020/12/11 07:14:25;;;;;;;54.00;32.72;;;;;;;6.24;100.00;100483.06;5034630;28;20029;-67
2020/12/11 07:17:29;;;;;;;68.18;38.17;;;;;;;5.90;100.00;100487.50;5035091;28;20350;-66
2020/12/11 07:20:14;;;;;;;65.07;38.30;;;;;;;5.69;100.00;100476.25;5034318;28;20481;-66
2020/12/11 07:23:00;;;;;;;61.22;36.92;;;;;;;6.60;100.00;100475.97;5047548;28;20484;-68
2020/12/11 07:25:50;;;;;;;57.97;35.92;;;;;;;6.71;100.00;100484.56;5033703;28;20041;-67
2020/12/11 07:28:35;;;;;;;60.20;35.58;;;;;;;6.74;100.00;100481.97;5033751;28;20398;-66
2020/12/11 07:31:22;;;;;;;60.00;35.55;;;;;;;6.64;100.00;100471.59;5033452;28;20112;-67
2020/12/11 07:34:18;;;;;;;58.10;34.72;;;;;;;6.22;100.00;100479.63;5033959;28;20041;-67
2020/12/11 07:37:03;;;;;;;59.10;34.35;;;;;;;5.96;100.00;100478.84;5033217;28;20029;-67
2020/12/11 07:39:49;;;;;;;53.53;32.17;;;;;;;6.38;100.00;100483.91;5033461;28;20033;-67
2020/12/11 07:42:34;;;;;;;43.40;28.45;;;;;;;6.65;100.00;100483.75;5033092;28;20064;-68
2020/12/11 07:45:32;;;;;;;43.03;28.27;;;;;;;7.11;100.00;100480.84;5033506;28;20025;-67
2020/12/11 07:48:18;;;;;;;50.75;32.30;;;;;;;7.33;100.00;100466.78;5033247;28;20037;-67
2020/12/11 07:51:05;;;;;;;54.40;32.92;;;;;;;6.54;100.00;100472.50;5033198;28;20064;-67
2020/12/11 07:53:54;;;;;;;49.70;31.40;;;;;;;7.03;100.00;100484.38;5033153;28;20048;-67
2020/12/11 07:56:40;;;;;;;48.45;31.08;;;;;;;7.30;100.00;100481.56;5025903;28;20496;-67
2020/12/11 07:59:25;;;;;;;45.85;27.38;;;;;;;7.60;100.00;100476.94;5013694;28;20042;-67
2020/12/11 08:02:12;;;;;;;39.67;26.20;;;;;;;7.40;100.00;100486.66;5013158;28;20654;-67
2020/12/11 08:04:58;;;;;;;41.65;24.05;;;;;;;7.63;100.00;100494.31;5013539;28;20038;-66
2020/12/11 08:07:48;;;;;;;41.08;25.17;;;;;;;7.33;100.00;100489.34;4999766;28;20041;-65
2020/12/11 08:10:34;;;;;;;39.20;23.83;;;;;;;7.50;100.00;100490.06;4999693;28;20042;-66
2020/12/11 08:13:22;;;;;;;35.65;22.75;;;;;;;7.67;100.00;100494.25;5013421;28;20037;-66
2020/12/11 08:16:07;;;;;;;37.10;23.73;;;;;;;7.37;100.00;100488.44;4999502;28;20038;-65
2020/12/11 08:18:54;;;;;;;33.03;20.42;;;;;;;7.71;100.00;100497.69;5013490;28;20044;-64
2020/12/11 08:21:39;;;;;;;29.75;18.77;;;;;;;7.93;100.00;100504.44;4999266;28;20461;-66
2020/12/11 08:24:28;;;;;;;25.77;16.83;;;;;;;7.89;100.00;100495.78;5013037;28;20041;-65
2020/12/11 08:27:21;;;;;;;23.63;16.83;;;;;;;8.14;100.00;100504.19;4999217;28;20425;-66
2020/12/11 08:30:13;;;;;;;23.30;16.77;;;;;;;8.24;100.00;100503.28;4999199;28;20120;-65
2020/12/11 08:33:08;;;;;;;37.60;26.23;;;;;;;7.37;100.00;100491.94;5012941;28;20045;-65
2020/12/11 08:35:54;;;;;;;43.65;29.92;;;;;;;7.34;100.00;100491.06;5012482;28;20040;-68
2020/12/11 08:38:39;;;;;;;45.03;32.83;;;;;;;7.52;100.00;100488.34;5012579;28;20029;-66
2020/12/11 08:41:28;;;;;;;46.00;33.15;;;;;;;7.86;100.00;100484.50;5012351;28;20187;-66
2020/12/11 08:44:30;;;;;;;41.28;29.30;;;;;;;7.64;100.00;100486.47;4999215;28;20029;-66
2020/12/11 08:53:12;;;;;;;34.22;25.08;;;;;;;7.66;100.00;100474.28;5030019;28;20041;-67
2020/12/11 08:55:58;;;;;;;36.47;25.75;;;;;;;7.76;100.00;100475.06;5016146;28;20437;-67
2020/12/11 08:58:43;;;;;;;43.38;28.08;;;;;;;7.98;100.00;100468.72;5030703;28;20451;-65
2020/12/11 09:01:29;;;;;;;41.83;30.33;;;;;;;8.44;100.00;100460.38;5031433;28;20471;-66
2020/12/11 09:04:14;;;;;;;42.45;29.05;;;;;;;8.48;100.00;100458.59;5032189;28;20084;-66
2020/12/11 09:06:59;;;;;;;42.28;30.02;;;;;;;8.65;100.00;100459.22;5031651;28;20040;-67
2020/12/11 09:09:45;;;;;;;37.30;27.98;;;;;;;8.77;100.00;100459.06;5031784;28;20041;-67
2020/12/11 09:12:30;;;;;;;37.58;29.42;;;;;;;8.94;100.00;100452.69;5031365;28;20033;-66
2020/12/11 09:15:17;;;;;;;37.10;27.63;;;;;;;8.94;100.00;100442.25;5032105;28;20041;-67
2020/12/11 09:18:03;;;;;;;35.63;26.52;;;;;;;8.44;100.00;100438.63;5031777;28;20112;-67
2020/12/11 09:20:48;;;;;;;29.90;21.33;;;;;;;8.35;100.00;100433.50;5017854;28;20033;-66
2020/12/11 09:23:34;;;;;;;29.95;22.52;;;;;;;8.65;100.00;100435.72;5031696;28;20052;-67
2020/12/11 09:26:19;;;;;;;35.03;23.35;;;;;;;8.81;100.00;100442.44;5031689;28;20464;-65
2020/12/11 09:29:14;;;;;;;27.00;20.95;;;;;;;8.71;100.00;100438.22;5031898;28;20140;-67
2020/12/11 09:32:02;;;;;;;28.83;21.17;;;;;;;8.41;100.00;100436.06;5030938;28;20049;-66
2020/12/11 09:34:47;;;;;;;25.77;18.73;;;;;;;9.03;100.00;100442.09;5031746;28;20044;-66
2020/12/11 09:37:33;;;;;;;26.98;20.05;;;;;;;9.17;100.00;100439.28;5031397;28;20068;-67
2020/12/11 09:40:21;;;;;;;27.20;19.25;;;;;;;8.97;100.00;100436.09;5031595;28;20040;-65
2020/12/11 09:49:13;;;;;;;21.13;15.57;;;;;;;9.19;100.00;100417.44;5045599;28;20037;-67
2020/12/11 09:54:47;;;;;;;17.52;13.15;;;;;;;9.28;100.00;100421.63;5045136;28;20040;-66
2020/12/11 09:57:32;;;;;;;20.08;15.25;;;;;;;9.52;100.00;100416.84;5003959;28;20465;-66
2020/12/11 10:00:18;;;;;;;19.00;14.07;;;;;;;9.94;100.00;100407.34;5011621;28;20442;-66
2020/12/11 10:03:06;;;;;;;17.73;13.82;;;;;;;9.75;100.00;100400.72;5011636;28;20103;-68
2020/12/11 10:05:52;;;;;;;16.50;12.20;;;;;;;9.97;100.00;100391.59;5013837;28;20037;-67
2020/12/11 10:08:38;;;;;;;18.27;14.05;;;;;;;9.82;100.00;100404.97;5015387;28;20065;-65
2020/12/11 10:11:23;;;;;;;18.77;13.73;;;;;;;10.06;100.00;100413.22;5015295;28;20052;-66
2020/12/11 10:16:57;;;;;;;15.38;11.55;;;;;;;9.31;100.00;100421.59;5015485;28;20038;-66
2020/12/11 10:19:42;;;;;;;13.63;9.13;;;;;;;9.05;100.00;100424.63;5015439;28;20037;-66
2020/12/11 10:22:28;;;;;;;11.07;7.65;;;;;;;9.41;100.00;100423.19;5014965;28;20399;-65
2020/12/11 10:25:14;;;;;;;10.07;7.28;;;;;;;9.32;100.00;100424.19;5001462;28;20450;-66
2020/12/11 10:27:59;;;;;;;9.90;7.07;;;;;;;9.33;100.00;100428.53;5015201;28;20081;-66
2020/12/11 10:30:45;;;;;;;9.30;7.18;;;;;;;9.38;100.00;100425.84;5014644;28;20061;-65
2020/12/11 10:33:30;;;;;;;9.10;6.85;;;;;;;9.23;100.00;100423.47;5015263;28;20041;-65
2020/12/11 10:36:15;;;;;;;9.40;7.05;;;;;;;8.74;100.00;100422.53;5001379;28;20064;-66
2020/12/11 10:39:01;;;;;;;9.68;7.53;;;;;;;8.11;100.00;100418.13;5000690;28;20515;-66
2020/12/11 10:41:46;;;;;;;10.65;8.13;;;;;;;8.48;100.00;100428.13;5014745;28;20088;-65
2020/12/11 10:44:32;;;;;;;11.43;9.02;;;;;;;8.52;100.00;100427.19;5001335;28;20124;-66
2020/12/11 10:47:17;;;;;;;13.23;9.25;;;;;;;8.22;100.00;100424.13;5014971;28;20362;-66
2020/12/11 10:50:03;;;;;;;12.88;9.10;;;;;;;8.30;100.00;100422.28;5001063;28;20116;-66
2020/12/11 10:52:48;;;;;;;13.48;8.73;;;;;;;8.08;100.00;100418.19;5000489;28;20029;-66
2020/12/11 10:55:34;;;;;;;13.13;9.15;;;;;;;8.65;100.00;100418.28;5014965;28;20392;-66
2020/12/11 10:58:19;;;;;;;16.50;9.98;;;;;;;8.23;100.00;100413.66;5034770;28;20040;-66
2020/12/11 11:01:07;;;;;;;14.10;9.07;;;;;;;8.41;100.00;100410.78;5048223;28;20045;-66
2020/12/11 11:03:53;;;;;;;16.63;10.20;;;;;;;8.49;100.00;100403.72;5034229;28;20033;-65
2020/12/11 11:06:44;;;;;;;14.63;10.48;;;;;;;8.42;100.00;100398.63;5006912;28;20034;-66
2020/12/11 11:12:29;;;;;;;15.18;11.18;;;;;;;8.85;100.00;100400.56;5033876;28;20057;-65
2020/12/11 11:27:32;;;;;;;15.13;11.48;;;;;;;9.30;100.00;100384.16;5047764;28;20050;-66
2020/12/11 11:29:43;;;;;;;12.73;9.30;;;;;;;8.50;100.00;100378.50;5030497;28;20068;-65
2020/12/11 11:32:28;;;;;;;13.82;10.57;;;;;;;8.99;100.00;100388.16;5033145;28;20133;-66
2020/12/11 11:35:14;;;;;;;15.00;10.32;;;;;;;9.13;100.00;100393.16;5020028;28;20032;-66
2020/12/11 11:38:01;;;;;;;14.23;10.20;;;;;;;9.35;100.00;100387.53;5033577;28;20380;-66
2020/12/11 11:40:49;;;;;;;17.42;11.60;;;;;;;9.07;100.00;100385.41;5033452;28;20441;-66
2020/12/11 11:43:50;;;;;;;18.75;11.55;;;;;;;8.89;100.00;100393.56;5033570;28;20053;-66
2020/12/11 11:46:35;;;;;;;17.17;11.43;;;;;;;9.04;100.00;100394.16;5033327;28;20449;-66
2020/12/11 11:54:57;;;;;;;17.95;12.00;;;;;;;9.03;100.00;100400.28;5032925;28;20445;-65
2020/12/11 11:57:43;;;;;;;19.25;12.73;;;;;;;8.74;100.00;100399.91;5018220;28;20038;-65
2020/12/11 12:00:28;;;;;;;19.83;13.90;;;;;;;8.98;100.00;100394.28;5013488;28;20057;-65
2020/12/11 12:03:14;;;;;;;24.00;16.38;;;;;;;9.09;100.00;100386.28;5013463;28;20413;-65
2020/12/11 12:05:59;;;;;;;20.70;15.05;;;;;;;8.69;100.00;100387.78;4999772;28;20140;-65
2020/12/11 12:08:44;;;;;;;20.10;14.52;;;;;;;9.36;100.00;100383.16;5013308;28;20056;-65
2020/12/11 12:11:30;;;;;;;22.15;14.90;;;;;;;9.52;100.00;100371.53;5012723;28;20068;-67
2020/12/11 12:14:15;;;;;;;19.65;14.65;;;;;;;9.76;100.00;100371.06;5012959;28;20113;-65
2020/12/11 12:17:03;;;;;;;16.75;11.60;;;;;;;9.70;100.00;100369.41;5013124;28;20099;-65
2020/12/11 12:19:50;;;;;;;13.77;10.10;;;;;;;9.64;100.00;100359.09;5013136;28;20361;-65
2020/12/11 12:28:54;;;;;;;16.65;11.93;;;;;;;9.68;100.00;100363.38;5012112;28;20468;-66
2020/12/11 12:31:50;;;;;;;14.63;10.57;;;;;;;9.67;100.00;100371.25;4998898;28;20050;-66
2020/12/11 12:46:19;;;;;;;21.73;16.00;;;;;;;9.79;100.00;100368.38;5011716;28;20524;-65
2020/12/11 12:49:05;;;;;;;27.95;19.73;;;;;;;9.38;100.00;100374.44;4998987;28;20040;-65
2020/12/11 12:51:51;;;;;;;27.38;20.42;;;;;;;9.77;100.00;100378.03;5012368;28;20422;-65
2020/12/11 12:54:37;;;;;;;28.95;20.75;;;;;;;9.68;100.00;100378.19;5012460;28;20417;-66
2020/12/11 12:57:28;;;;;;;33.75;24.08;;;;;;;9.54;100.00;100381.09;5024509;28;20037;-67
2020/12/11 13:05:51;;;;;;;44.15;29.98;;;;;;;9.68;100.00;100383.44;5045701;28;20446;-65
2020/12/11 13:08:36;;;;;;;48.67;32.50;;;;;;;9.21;100.00;100386.06;5031933;28;20148;-65
2020/12/11 13:11:22;;;;;;;49.83;33.30;;;;;;;9.35;100.00;100392.78;5031435;28;20257;-66
2020/12/11 13:14:07;;;;;;;48.15;31.50;;;;;;;9.55;100.00;100389.78;5032017;28;20040;-66
2020/12/11 13:16:53;;;;;;;48.33;33.75;;;;;;;9.75;100.00;100385.03;5018055;28;20029;-66
2020/12/11 13:29:52;;;;;;;67.10;41.72;;;;;;;9.13;100.00;100393.16;4973813;28;20035;-66
2020/12/11 13:32:37;;;;;;;58.15;36.65;;;;;;;9.16;100.00;100387.88;5032162;28;20064;-66
2020/12/11 13:35:22;;;;;;;51.47;33.40;;;;;;;9.19;100.00;100387.81;5032945;28;20095;-66
2020/12/11 13:38:08;;;;;;;50.45;32.80;;;;;;;8.85;100.00;100400.56;5031945;28;20065;-66
2020/12/11 13:40:54;;;;;;;40.97;27.40;;;;;;;9.19;100.00;100393.94;5031420;28;20041;-67
2020/12/11 13:43:39;;;;;;;41.42;27.70;;;;;;;9.23;100.00;100407.78;5032015;28;20122;-67
2020/12/11 13:46:25;;;;;;;35.97;24.95;;;;;;;9.36;100.00;100406.69;5031695;28;20048;-67
2020/12/11 13:49:10;;;;;;;35.20;23.67;;;;;;;9.26;100.00;100408.63;5032087;28;20037;-67